Connorsville, Ohio
Current Conditions -  °F | °C
As of 12:53 AM on Friday 28 Nov 2014 (Local Time) from KHLG Reporting Station
Broken Clouds Broken Clouds  
Wind Chill: 18°   Ceiling: 4100
Heat Index: 28°   Visibility: 10mi
Dew Point: 21°   Wind: 12mph
Humidity: 75%   Direction: 280°W
Pressure: 30.23"   Gusts: NA
Location:  40.2229°N, 80.7179°W
Report Text: KHLG 280553Z AUTO 28010KT 10SM FEW033 BKN041 BKN049 M02/M06 A3023 RMK AO2 SNE07 SLP252 P0000 60000 T10221061 11017 21028 50002
Loading
Personal Weather Stations






























Interactive Weather Map New forecast layout! Learn more

10-Day Weather Forecast

Advertisements
Track Severe Weather on mobile